SBOSBO MCO / KMCO
Speedbird OnlineSpeedbird Online MCO / KMCO

Orlando International Airport
03:32 18.1°C

Location Orlando, United States
Latitude: 28.429399490356445
Longitude: -81.30899810791016
Web Airport Website | Wikipedia
Altitude 29 Meter / 96 Feet
Distance 7,004 KM / 4,352 Miles
from London.
Time Zone UTC -4 hours (America/New_York)
Codes IATA: MCO
ICAO: KMCO
Currency £1 equals USD 1.13
Runways
RunwayLength (m)Surface
17L2743Asphalt
17R3048Concrete
18L3659Partial
18R3659Concrete
35L3048Concrete
35R2743Asphalt
36L3659Concrete
36R3659Partial
Radio
TypeDescriptionFrequency
A/DAPP/DEP119.4
ATISATIS121.25
CLDCLNC DEL134.7
GNDGND121.8
OPSAR OPS41.5
RDOST PETERSBURG RDO122.1
RDOST PETERSBURG RDO122.2
TWRTWR118.45
UNICUNICOM122.95
Live ATC
METAR KMCO 060653Z 00000KT 10SM CLR 19/16 A3005 RMK AO2 SLP174 T01940161 $
TAF KMCO 060527Z 0606/0712 03003KT P6SM SKC FM061600 04006KT P6SM FEW050 FM070000 00000KT P6SM SKC
Weather As Of 06 Oct 2022 03:30
Description Clear sky
Wind 0 km/h from North (0°)
Cloud Cover 0%
Precipitation Rain: none, Snow: none
Sunrise 07:20
Sunset 19:05
Lounges American Airlines Admirals Club, Terminal B
The Club at MCO, Terminal B
Rotations During the last 90 days there were
168 flights from LGW
81 flights from LHR
3 flights from TPA
1 flights from MCO
172 flights to LGW
84 flights to LHR
1 flights to MCO


© 2017-2022 Speedbird Online